sensor_id;sensor_type;location;lat;lon;timestamp;temperature;humidity
4647;DHT22;2336;47.822;7.564;2024-02-21T00:01:47;7.70;99.90
4647;DHT22;2336;47.822;7.564;2024-02-21T00:04:15;7.70;99.90
4647;DHT22;2336;47.822;7.564;2024-02-21T00:06:49;7.70;99.90
4647;DHT22;2336;47.822;7.564;2024-02-21T00:09:20;7.70;99.90
4647;DHT22;2336;47.822;7.564;2024-02-21T00:11:50;7.70;99.90
4647;DHT22;2336;47.822;7.564;2024-02-21T00:14:32;7.70;99.90
4647;DHT22;2336;47.822;7.564;2024-02-21T00:17:13;7.70;99.90
4647;DHT22;2336;47.822;7.564;2024-02-21T00:19:47;7.70;99.90
4647;DHT22;2336;47.822;7.564;2024-02-21T00:22:19;7.70;99.90
4647;DHT22;2336;47.822;7.564;2024-02-21T00:24:55;7.70;99.90
4647;DHT22;2336;47.822;7.564;2024-02-21T00:27:34;7.80;99.90
4647;DHT22;2336;47.822;7.564;2024-02-21T00:30:10;7.70;99.90
4647;DHT22;2336;47.822;7.564;2024-02-21T00:32:38;7.70;99.90
4647;DHT22;2336;47.822;7.564;2024-02-21T00:35:11;7.70;99.90
4647;DHT22;2336;47.822;7.564;2024-02-21T00:37:39;7.70;99.90
4647;DHT22;2336;47.822;7.564;2024-02-21T00:40:12;7.70;99.90
4647;DHT22;2336;47.822;7.564;2024-02-21T00:42:42;7.70;99.90
4647;DHT22;2336;47.822;7.564;2024-02-21T00:45:16;7.60;99.90
4647;DHT22;2336;47.822;7.564;2024-02-21T00:47:43;7.60;99.90
4647;DHT22;2336;47.822;7.564;2024-02-21T00:50:14;7.60;99.90
4647;DHT22;2336;47.822;7.564;2024-02-21T00:52:51;7.60;99.90
4647;DHT22;2336;47.822;7.564;2024-02-21T00:55:31;7.60;99.90
4647;DHT22;2336;47.822;7.564;2024-02-21T00:57:58;7.60;99.90
4647;DHT22;2336;47.822;7.564;2024-02-21T01:00:28;7.60;99.90
4647;DHT22;2336;47.822;7.564;2024-02-21T01:02:59;7.60;99.90
4647;DHT22;2336;47.822;7.564;2024-02-21T01:05:25;7.60;99.90
4647;DHT22;2336;47.822;7.564;2024-02-21T01:07:53;7.60;99.90
4647;DHT22;2336;47.822;7.564;2024-02-21T01:10:21;7.60;99.90
4647;DHT22;2336;47.822;7.564;2024-02-21T01:12:49;7.60;99.90
4647;DHT22;2336;47.822;7.564;2024-02-21T01:15:16;7.60;99.90
4647;DHT22;2336;47.822;7.564;2024-02-21T01:17:43;7.60;99.90
4647;DHT22;2336;47.822;7.564;2024-02-21T01:20:10;7.60;99.90
4647;DHT22;2336;47.822;7.564;2024-02-21T01:22:37;7.60;99.90
4647;DHT22;2336;47.822;7.564;2024-02-21T01:25:04;7.60;99.90
4647;DHT22;2336;47.822;7.564;2024-02-21T01:27:32;7.60;99.90
4647;DHT22;2336;47.822;7.564;2024-02-21T01:29:59;7.60;99.90
4647;DHT22;2336;47.822;7.564;2024-02-21T01:32:26;7.70;99.90
4647;DHT22;2336;47.822;7.564;2024-02-21T01:34:52;7.70;99.90
4647;DHT22;2336;47.822;7.564;2024-02-21T01:37:19;7.70;99.90
4647;DHT22;2336;47.822;7.564;2024-02-21T01:39:47;7.70;99.90
4647;DHT22;2336;47.822;7.564;2024-02-21T01:42:14;7.70;99.90
4647;DHT22;2336;47.822;7.564;2024-02-21T01:44:43;7.70;99.90
4647;DHT22;2336;47.822;7.564;2024-02-21T01:47:10;7.80;99.90
4647;DHT22;2336;47.822;7.564;2024-02-21T01:49:39;7.80;99.90
4647;DHT22;2336;47.822;7.564;2024-02-21T01:52:06;7.80;99.90
4647;DHT22;2336;47.822;7.564;2024-02-21T01:54:33;7.70;99.90
4647;DHT22;2336;47.822;7.564;2024-02-21T01:57:01;7.70;99.90
4647;DHT22;2336;47.822;7.564;2024-02-21T01:59:28;7.70;99.90
4647;DHT22;2336;47.822;7.564;2024-02-21T02:01:56;7.70;99.90
4647;DHT22;2336;47.822;7.564;2024-02-21T02:04:23;7.60;99.90
4647;DHT22;2336;47.822;7.564;2024-02-21T02:06:50;7.70;99.90
4647;DHT22;2336;47.822;7.564;2024-02-21T02:09:18;7.60;99.90
4647;DHT22;2336;47.822;7.564;2024-02-21T02:11:44;7.60;99.90
4647;DHT22;2336;47.822;7.564;2024-02-21T02:14:11;7.60;99.90
4647;DHT22;2336;47.822;7.564;2024-02-21T02:16:38;7.60;99.90
4647;DHT22;2336;47.822;7.564;2024-02-21T02:19:06;7.60;99.90
4647;DHT22;2336;47.822;7.564;2024-02-21T02:21:39;7.60;99.90
4647;DHT22;2336;47.822;7.564;2024-02-21T02:24:07;7.60;99.90
4647;DHT22;2336;47.822;7.564;2024-02-21T02:26:34;7.60;99.90
4647;DHT22;2336;47.822;7.564;2024-02-21T02:29:01;7.60;99.90
4647;DHT22;2336;47.822;7.564;2024-02-21T02:31:28;7.60;99.90
4647;DHT22;2336;47.822;7.564;2024-02-21T02:33:55;7.60;99.90
4647;DHT22;2336;47.822;7.564;2024-02-21T02:36:21;7.60;99.90
4647;DHT22;2336;47.822;7.564;2024-02-21T02:38:48;7.50;99.90
4647;DHT22;2336;47.822;7.564;2024-02-21T02:41:16;7.50;99.90
4647;DHT22;2336;47.822;7.564;2024-02-21T02:43:43;7.50;99.90
4647;DHT22;2336;47.822;7.564;2024-02-21T02:46:10;7.40;99.90
4647;DHT22;2336;47.822;7.564;2024-02-21T02:48:36;7.40;99.90
4647;DHT22;2336;47.822;7.564;2024-02-21T02:51:04;7.40;99.90
4647;DHT22;2336;47.822;7.564;2024-02-21T02:53:30;7.40;99.90
4647;DHT22;2336;47.822;7.564;2024-02-21T02:55:57;7.40;99.90
4647;DHT22;2336;47.822;7.564;2024-02-21T02:58:25;7.30;99.90
4647;DHT22;2336;47.822;7.564;2024-02-21T03:00:52;7.30;99.90
4647;DHT22;2336;47.822;7.564;2024-02-21T03:03:19;7.30;99.90
4647;DHT22;2336;47.822;7.564;2024-02-21T03:05:46;7.20;99.90
4647;DHT22;2336;47.822;7.564;2024-02-21T03:08:12;7.20;99.90
4647;DHT22;2336;47.822;7.564;2024-02-21T03:10:40;7.10;99.90
4647;DHT22;2336;47.822;7.564;2024-02-21T03:13:06;7.10;99.90
4647;DHT22;2336;47.822;7.564;2024-02-21T03:15:34;7.00;99.90
4647;DHT22;2336;47.822;7.564;2024-02-21T03:18:01;7.00;99.90
4647;DHT22;2336;47.822;7.564;2024-02-21T03:20:28;6.90;99.90
4647;DHT22;2336;47.822;7.564;2024-02-21T03:22:55;6.90;99.90
4647;DHT22;2336;47.822;7.564;2024-02-21T03:25:22;6.90;99.90
4647;DHT22;2336;47.822;7.564;2024-02-21T03:27:48;6.80;99.90
4647;DHT22;2336;47.822;7.564;2024-02-21T03:30:15;6.70;99.90
4647;DHT22;2336;47.822;7.564;2024-02-21T03:32:43;6.70;99.90
4647;DHT22;2336;47.822;7.564;2024-02-21T03:35:10;6.60;99.90
4647;DHT22;2336;47.822;7.564;2024-02-21T03:37:37;6.60;99.90
4647;DHT22;2336;47.822;7.564;2024-02-21T03:40:07;6.60;99.90
4647;DHT22;2336;47.822;7.564;2024-02-21T03:42:34;6.60;99.90
4647;DHT22;2336;47.822;7.564;2024-02-21T03:45:01;6.50;99.90
4647;DHT22;2336;47.822;7.564;2024-02-21T03:47:29;6.50;99.90
4647;DHT22;2336;47.822;7.564;2024-02-21T03:49:57;6.40;99.90
4647;DHT22;2336;47.822;7.564;2024-02-21T03:52:25;6.40;99.90
4647;DHT22;2336;47.822;7.564;2024-02-21T03:54:51;6.40;99.90
4647;DHT22;2336;47.822;7.564;2024-02-21T03:57:20;6.40;99.90
4647;DHT22;2336;47.822;7.564;2024-02-21T03:59:49;6.30;99.90
4647;DHT22;2336;47.822;7.564;2024-02-21T04:02:16;6.30;99.90
4647;DHT22;2336;47.822;7.564;2024-02-21T04:04:43;6.30;99.90
4647;DHT22;2336;47.822;7.564;2024-02-21T04:07:13;6.20;99.90
4647;DHT22;2336;47.822;7.564;2024-02-21T04:09:39;6.20;99.90
4647;DHT22;2336;47.822;7.564;2024-02-21T04:12:08;6.20;99.90
4647;DHT22;2336;47.822;7.564;2024-02-21T04:14:35;6.20;99.90
4647;DHT22;2336;47.822;7.564;2024-02-21T04:17:01;6.10;99.90
4647;DHT22;2336;47.822;7.564;2024-02-21T04:19:28;6.10;99.90
4647;DHT22;2336;47.822;7.564;2024-02-21T04:21:56;6.10;99.90
4647;DHT22;2336;47.822;7.564;2024-02-21T04:24:24;6.10;99.90
4647;DHT22;2336;47.822;7.564;2024-02-21T04:26:51;6.10;99.90
4647;DHT22;2336;47.822;7.564;2024-02-21T04:29:17;6.10;99.90
4647;DHT22;2336;47.822;7.564;2024-02-21T04:31:44;6.20;99.90
4647;DHT22;2336;47.822;7.564;2024-02-21T04:34:11;6.20;99.90
4647;DHT22;2336;47.822;7.564;2024-02-21T04:36:38;6.20;99.90
4647;DHT22;2336;47.822;7.564;2024-02-21T04:39:04;6.10;99.90
4647;DHT22;2336;47.822;7.564;2024-02-21T04:41:32;6.10;99.90
4647;DHT22;2336;47.822;7.564;2024-02-21T04:43:59;6.10;99.90
4647;DHT22;2336;47.822;7.564;2024-02-21T04:46:26;6.10;99.90
4647;DHT22;2336;47.822;7.564;2024-02-21T04:48:53;6.10;99.90
4647;DHT22;2336;47.822;7.564;2024-02-21T04:51:20;6.10;99.90
4647;DHT22;2336;47.822;7.564;2024-02-21T04:53:46;6.10;99.90
4647;DHT22;2336;47.822;7.564;2024-02-21T04:56:13;6.00;99.90
4647;DHT22;2336;47.822;7.564;2024-02-21T04:58:41;6.00;99.90
4647;DHT22;2336;47.822;7.564;2024-02-21T05:01:08;6.00;99.90
4647;DHT22;2336;47.822;7.564;2024-02-21T05:03:35;6.00;99.90
4647;DHT22;2336;47.822;7.564;2024-02-21T05:06:01;6.00;99.90
4647;DHT22;2336;47.822;7.564;2024-02-21T05:08:28;5.90;99.90
4647;DHT22;2336;47.822;7.564;2024-02-21T05:10:55;5.90;99.90
4647;DHT22;2336;47.822;7.564;2024-02-21T05:13:22;5.90;99.90
4647;DHT22;2336;47.822;7.564;2024-02-21T05:15:50;5.90;99.90
4647;DHT22;2336;47.822;7.564;2024-02-21T05:18:17;5.80;99.90
4647;DHT22;2336;47.822;7.564;2024-02-21T05:20:45;5.80;99.90
4647;DHT22;2336;47.822;7.564;2024-02-21T05:23:11;5.80;99.90
4647;DHT22;2336;47.822;7.564;2024-02-21T05:25:38;5.80;99.90
4647;DHT22;2336;47.822;7.564;2024-02-21T05:28:05;5.80;99.90
4647;DHT22;2336;47.822;7.564;2024-02-21T05:30:32;5.70;99.90
4647;DHT22;2336;47.822;7.564;2024-02-21T05:33:04;5.70;99.90
4647;DHT22;2336;47.822;7.564;2024-02-21T05:35:31;5.70;99.90
4647;DHT22;2336;47.822;7.564;2024-02-21T05:37:57;5.70;99.90
4647;DHT22;2336;47.822;7.564;2024-02-21T05:40:25;5.80;99.90
4647;DHT22;2336;47.822;7.564;2024-02-21T05:42:51;5.70;99.90
4647;DHT22;2336;47.822;7.564;2024-02-21T05:45:18;5.70;99.90
4647;DHT22;2336;47.822;7.564;2024-02-21T05:47:45;5.60;99.90
4647;DHT22;2336;47.822;7.564;2024-02-21T05:50:13;5.70;99.90
4647;DHT22;2336;47.822;7.564;2024-02-21T05:52:40;5.60;99.90
4647;DHT22;2336;47.822;7.564;2024-02-21T05:55:07;5.60;99.90
4647;DHT22;2336;47.822;7.564;2024-02-21T05:57:35;5.60;99.90
4647;DHT22;2336;47.822;7.564;2024-02-21T06:00:04;5.60;99.90
4647;DHT22;2336;47.822;7.564;2024-02-21T06:02:31;5.60;99.90
4647;DHT22;2336;47.822;7.564;2024-02-21T06:04:58;5.50;99.90
4647;DHT22;2336;47.822;7.564;2024-02-21T06:07:26;5.50;99.90
4647;DHT22;2336;47.822;7.564;2024-02-21T06:09:53;5.50;99.90
4647;DHT22;2336;47.822;7.564;2024-02-21T06:12:19;5.40;99.90
4647;DHT22;2336;47.822;7.564;2024-02-21T06:14:46;5.40;99.90
4647;DHT22;2336;47.822;7.564;2024-02-21T06:17:13;5.40;99.90
4647;DHT22;2336;47.822;7.564;2024-02-21T06:19:40;5.40;99.90
4647;DHT22;2336;47.822;7.564;2024-02-21T06:22:07;5.30;99.90
4647;DHT22;2336;47.822;7.564;2024-02-21T06:24:35;5.30;99.90
4647;DHT22;2336;47.822;7.564;2024-02-21T06:27:02;5.30;99.90
4647;DHT22;2336;47.822;7.564;2024-02-21T06:29:29;5.30;99.90
4647;DHT22;2336;47.822;7.564;2024-02-21T06:31:56;5.30;99.90
4647;DHT22;2336;47.822;7.564;2024-02-21T06:34:23;5.30;99.90
4647;DHT22;2336;47.822;7.564;2024-02-21T06:36:50;5.20;99.90
4647;DHT22;2336;47.822;7.564;2024-02-21T06:39:16;5.30;99.90
4647;DHT22;2336;47.822;7.564;2024-02-21T06:41:44;5.30;99.90
4647;DHT22;2336;47.822;7.564;2024-02-21T06:44:12;5.30;99.90
4647;DHT22;2336;47.822;7.564;2024-02-21T06:46:39;5.30;99.90
4647;DHT22;2336;47.822;7.564;2024-02-21T06:49:05;5.30;99.90
4647;DHT22;2336;47.822;7.564;2024-02-21T06:51:32;5.30;99.90
4647;DHT22;2336;47.822;7.564;2024-02-21T06:54:00;5.30;99.90
4647;DHT22;2336;47.822;7.564;2024-02-21T06:56:27;5.30;99.90
4647;DHT22;2336;47.822;7.564;2024-02-21T06:58:56;5.30;99.90
4647;DHT22;2336;47.822;7.564;2024-02-21T07:01:22;5.30;99.90
4647;DHT22;2336;47.822;7.564;2024-02-21T07:03:49;5.30;99.90
4647;DHT22;2336;47.822;7.564;2024-02-21T07:06:16;5.30;99.90
4647;DHT22;2336;47.822;7.564;2024-02-21T07:08:43;5.30;99.90
4647;DHT22;2336;47.822;7.564;2024-02-21T07:11:11;5.30;99.90
4647;DHT22;2336;47.822;7.564;2024-02-21T07:13:37;5.30;99.90
4647;DHT22;2336;47.822;7.564;2024-02-21T07:16:06;5.30;99.90
4647;DHT22;2336;47.822;7.564;2024-02-21T07:18:33;5.30;99.90
4647;DHT22;2336;47.822;7.564;2024-02-21T07:21:00;5.30;99.90
4647;DHT22;2336;47.822;7.564;2024-02-21T07:23:27;5.30;99.90
4647;DHT22;2336;47.822;7.564;2024-02-21T07:25:53;5.40;99.90
4647;DHT22;2336;47.822;7.564;2024-02-21T07:28:20;5.40;99.90
4647;DHT22;2336;47.822;7.564;2024-02-21T07:30:47;5.50;99.90
4647;DHT22;2336;47.822;7.564;2024-02-21T07:33:15;5.50;99.90
4647;DHT22;2336;47.822;7.564;2024-02-21T07:35:42;5.50;99.90
4647;DHT22;2336;47.822;7.564;2024-02-21T07:38:10;5.60;99.90
4647;DHT22;2336;47.822;7.564;2024-02-21T07:40:38;5.60;99.90
4647;DHT22;2336;47.822;7.564;2024-02-21T07:43:04;5.70;99.90
4647;DHT22;2336;47.822;7.564;2024-02-21T07:45:31;5.70;99.90
4647;DHT22;2336;47.822;7.564;2024-02-21T07:47:58;5.80;99.90
4647;DHT22;2336;47.822;7.564;2024-02-21T07:50:26;5.70;99.90
4647;DHT22;2336;47.822;7.564;2024-02-21T07:52:53;5.80;99.90
4647;DHT22;2336;47.822;7.564;2024-02-21T07:55:20;5.80;99.90
4647;DHT22;2336;47.822;7.564;2024-02-21T07:57:46;5.80;99.90
4647;DHT22;2336;47.822;7.564;2024-02-21T08:00:14;5.90;99.90
4647;DHT22;2336;47.822;7.564;2024-02-21T08:02:45;5.90;99.90
4647;DHT22;2336;47.822;7.564;2024-02-21T08:05:12;5.90;99.90
4647;DHT22;2336;47.822;7.564;2024-02-21T08:07:40;6.00;99.90
4647;DHT22;2336;47.822;7.564;2024-02-21T08:10:07;6.00;99.90
4647;DHT22;2336;47.822;7.564;2024-02-21T08:12:34;6.00;99.90
4647;DHT22;2336;47.822;7.564;2024-02-21T08:15:01;6.10;99.90
4647;DHT22;2336;47.822;7.564;2024-02-21T08:17:29;6.20;99.90
4647;DHT22;2336;47.822;7.564;2024-02-21T08:19:55;6.30;99.90
4647;DHT22;2336;47.822;7.564;2024-02-21T08:22:22;6.30;99.90
4647;DHT22;2336;47.822;7.564;2024-02-21T08:24:50;6.40;99.90
4647;DHT22;2336;47.822;7.564;2024-02-21T08:27:17;6.40;99.90
4647;DHT22;2336;47.822;7.564;2024-02-21T08:29:44;6.40;99.90
4647;DHT22;2336;47.822;7.564;2024-02-21T08:32:10;6.50;99.90
4647;DHT22;2336;47.822;7.564;2024-02-21T08:34:37;6.60;99.90
4647;DHT22;2336;47.822;7.564;2024-02-21T08:37:04;6.60;99.90
4647;DHT22;2336;47.822;7.564;2024-02-21T08:39:31;6.70;99.90
4647;DHT22;2336;47.822;7.564;2024-02-21T08:41:59;6.70;99.90
4647;DHT22;2336;47.822;7.564;2024-02-21T08:44:28;6.80;99.90
4647;DHT22;2336;47.822;7.564;2024-02-21T08:46:54;6.90;99.90
4647;DHT22;2336;47.822;7.564;2024-02-21T08:49:21;7.00;99.90
4647;DHT22;2336;47.822;7.564;2024-02-21T08:51:48;7.00;99.90
4647;DHT22;2336;47.822;7.564;2024-02-21T08:54:14;7.10;99.90
4647;DHT22;2336;47.822;7.564;2024-02-21T08:56:42;7.20;99.90
4647;DHT22;2336;47.822;7.564;2024-02-21T08:59:10;7.30;99.90
4647;DHT22;2336;47.822;7.564;2024-02-21T09:01:37;7.40;99.90
4647;DHT22;2336;47.822;7.564;2024-02-21T09:04:03;7.50;99.90
4647;DHT22;2336;47.822;7.564;2024-02-21T09:06:30;7.60;99.90
4647;DHT22;2336;47.822;7.564;2024-02-21T09:08:58;7.70;99.90
4647;DHT22;2336;47.822;7.564;2024-02-21T09:11:25;7.70;99.90
4647;DHT22;2336;47.822;7.564;2024-02-21T09:13:53;7.80;99.90
4647;DHT22;2336;47.822;7.564;2024-02-21T09:16:21;7.90;99.90
4647;DHT22;2336;47.822;7.564;2024-02-21T09:18:48;7.90;99.90
4647;DHT22;2336;47.822;7.564;2024-02-21T09:21:15;8.00;99.90
4647;DHT22;2336;47.822;7.564;2024-02-21T09:23:42;8.00;99.90
4647;DHT22;2336;47.822;7.564;2024-02-21T09:26:08;8.20;99.90
4647;DHT22;2336;47.822;7.564;2024-02-21T09:28:39;8.30;99.90
4647;DHT22;2336;47.822;7.564;2024-02-21T09:31:05;8.50;99.90
4647;DHT22;2336;47.822;7.564;2024-02-21T09:33:34;8.60;99.90
4647;DHT22;2336;47.822;7.564;2024-02-21T09:36:01;8.60;99.90
4647;DHT22;2336;47.822;7.564;2024-02-21T09:38:28;8.70;99.90
4647;DHT22;2336;47.822;7.564;2024-02-21T09:40:59;8.80;99.90
4647;DHT22;2336;47.822;7.564;2024-02-21T09:43:27;8.80;99.90
4647;DHT22;2336;47.822;7.564;2024-02-21T09:45:55;8.90;99.90
4647;DHT22;2336;47.822;7.564;2024-02-21T09:48:31;8.90;99.90
4647;DHT22;2336;47.822;7.564;2024-02-21T09:51:02;9.00;99.90
4647;DHT22;2336;47.822;7.564;2024-02-21T09:53:31;9.10;99.90
4647;DHT22;2336;47.822;7.564;2024-02-21T09:55:59;9.10;99.90
4647;DHT22;2336;47.822;7.564;2024-02-21T09:58:27;9.20;99.90
4647;DHT22;2336;47.822;7.564;2024-02-21T10:00:53;9.30;99.90
4647;DHT22;2336;47.822;7.564;2024-02-21T10:03:20;9.50;99.90
4647;DHT22;2336;47.822;7.564;2024-02-21T10:05:48;9.50;99.90
4647;DHT22;2336;47.822;7.564;2024-02-21T10:08:18;9.50;99.90
4647;DHT22;2336;47.822;7.564;2024-02-21T10:10:45;9.50;99.90
4647;DHT22;2336;47.822;7.564;2024-02-21T10:13:24;9.50;99.90
4647;DHT22;2336;47.822;7.564;2024-02-21T10:16:01;9.60;99.90
4647;DHT22;2336;47.822;7.564;2024-02-21T10:18:28;9.70;99.90
4647;DHT22;2336;47.822;7.564;2024-02-21T10:21:03;9.70;99.90
4647;DHT22;2336;47.822;7.564;2024-02-21T10:23:42;9.70;99.90
4647;DHT22;2336;47.822;7.564;2024-02-21T10:26:09;9.80;99.90
4647;DHT22;2336;47.822;7.564;2024-02-21T10:28:37;9.80;99.90
4647;DHT22;2336;47.822;7.564;2024-02-21T10:31:07;9.90;99.90
4647;DHT22;2336;47.822;7.564;2024-02-21T10:33:34;9.90;99.90
4647;DHT22;2336;47.822;7.564;2024-02-21T10:36:07;10.10;99.90
4647;DHT22;2336;47.822;7.564;2024-02-21T10:38:36;10.10;99.90
4647;DHT22;2336;47.822;7.564;2024-02-21T10:41:05;10.20;99.90
4647;DHT22;2336;47.822;7.564;2024-02-21T10:43:37;10.40;99.90
4647;DHT22;2336;47.822;7.564;2024-02-21T10:46:06;10.30;99.90
4647;DHT22;2336;47.822;7.564;2024-02-21T10:48:41;10.50;99.90
4647;DHT22;2336;47.822;7.564;2024-02-21T10:51:14;10.40;99.90
4647;DHT22;2336;47.822;7.564;2024-02-21T10:53:45;10.50;99.90
4647;DHT22;2336;47.822;7.564;2024-02-21T10:56:22;10.50;99.90
4647;DHT22;2336;47.822;7.564;2024-02-21T10:58:49;10.70;99.90
4647;DHT22;2336;47.822;7.564;2024-02-21T11:01:18;10.80;99.90
4647;DHT22;2336;47.822;7.564;2024-02-21T11:03:46;10.70;99.90
4647;DHT22;2336;47.822;7.564;2024-02-21T11:06:15;10.80;99.90
4647;DHT22;2336;47.822;7.564;2024-02-21T11:08:42;10.90;99.90
4647;DHT22;2336;47.822;7.564;2024-02-21T11:11:12;11.20;99.90
4647;DHT22;2336;47.822;7.564;2024-02-21T11:13:44;11.20;99.90
4647;DHT22;2336;47.822;7.564;2024-02-21T11:16:20;11.20;99.90
4647;DHT22;2336;47.822;7.564;2024-02-21T11:18:47;11.30;99.90
4647;DHT22;2336;47.822;7.564;2024-02-21T11:21:14;11.40;99.90
4647;DHT22;2336;47.822;7.564;2024-02-21T11:23:41;11.50;99.90
4647;DHT22;2336;47.822;7.564;2024-02-21T11:26:08;11.60;99.90
4647;DHT22;2336;47.822;7.564;2024-02-21T11:28:35;11.70;99.90
4647;DHT22;2336;47.822;7.564;2024-02-21T11:31:12;11.60;99.90
4647;DHT22;2336;47.822;7.564;2024-02-21T11:33:40;11.60;99.90
4647;DHT22;2336;47.822;7.564;2024-02-21T11:36:08;11.70;99.90
4647;DHT22;2336;47.822;7.564;2024-02-21T11:38:35;11.80;99.90
4647;DHT22;2336;47.822;7.564;2024-02-21T11:41:02;11.80;99.90
4647;DHT22;2336;47.822;7.564;2024-02-21T11:43:29;11.80;99.90
4647;DHT22;2336;47.822;7.564;2024-02-21T11:45:59;11.80;99.90
4647;DHT22;2336;47.822;7.564;2024-02-21T11:48:28;11.80;99.90
4647;DHT22;2336;47.822;7.564;2024-02-21T11:50:54;11.80;99.90
4647;DHT22;2336;47.822;7.564;2024-02-21T11:53:21;11.80;99.90
4647;DHT22;2336;47.822;7.564;2024-02-21T11:55:49;11.90;99.90
4647;DHT22;2336;47.822;7.564;2024-02-21T11:58:16;11.90;99.90
4647;DHT22;2336;47.822;7.564;2024-02-21T12:00:43;12.00;99.90
4647;DHT22;2336;47.822;7.564;2024-02-21T12:03:10;11.90;99.90
4647;DHT22;2336;47.822;7.564;2024-02-21T12:05:38;12.00;99.90
4647;DHT22;2336;47.822;7.564;2024-02-21T12:08:05;12.20;99.90
4647;DHT22;2336;47.822;7.564;2024-02-21T12:10:32;12.30;99.90
4647;DHT22;2336;47.822;7.564;2024-02-21T12:13:06;12.40;99.90
4647;DHT22;2336;47.822;7.564;2024-02-21T12:15:33;12.50;99.90
4647;DHT22;2336;47.822;7.564;2024-02-21T12:18:00;12.60;99.90
4647;DHT22;2336;47.822;7.564;2024-02-21T12:20:27;12.60;99.90
4647;DHT22;2336;47.822;7.564;2024-02-21T12:22:55;12.60;99.90
4647;DHT22;2336;47.822;7.564;2024-02-21T12:25:22;12.50;99.90
4647;DHT22;2336;47.822;7.564;2024-02-21T12:27:51;12.50;99.90
4647;DHT22;2336;47.822;7.564;2024-02-21T12:30:18;12.50;99.90
4647;DHT22;2336;47.822;7.564;2024-02-21T12:32:46;12.50;99.90
4647;DHT22;2336;47.822;7.564;2024-02-21T12:35:13;12.40;99.90
4647;DHT22;2336;47.822;7.564;2024-02-21T12:37:40;12.50;99.90
4647;DHT22;2336;47.822;7.564;2024-02-21T12:40:10;12.60;99.90
4647;DHT22;2336;47.822;7.564;2024-02-21T12:42:38;12.50;99.90
4647;DHT22;2336;47.822;7.564;2024-02-21T12:45:06;12.60;99.90
4647;DHT22;2336;47.822;7.564;2024-02-21T12:47:33;12.40;99.90
4647;DHT22;2336;47.822;7.564;2024-02-21T12:50:00;12.50;99.90
4647;DHT22;2336;47.822;7.564;2024-02-21T12:52:28;12.50;99.90
4647;DHT22;2336;47.822;7.564;2024-02-21T12:54:55;12.50;99.90
4647;DHT22;2336;47.822;7.564;2024-02-21T12:57:25;12.50;99.90
4647;DHT22;2336;47.822;7.564;2024-02-21T12:59:52;12.50;99.90
4647;DHT22;2336;47.822;7.564;2024-02-21T13:02:19;12.60;99.90
4647;DHT22;2336;47.822;7.564;2024-02-21T13:04:46;12.60;99.90
4647;DHT22;2336;47.822;7.564;2024-02-21T13:07:13;12.50;99.90
4647;DHT22;2336;47.822;7.564;2024-02-21T13:09:40;12.60;99.90
4647;DHT22;2336;47.822;7.564;2024-02-21T13:12:07;12.60;99.90
4647;DHT22;2336;47.822;7.564;2024-02-21T13:14:35;12.70;99.90
4647;DHT22;2336;47.822;7.564;2024-02-21T13:17:04;12.70;99.90
4647;DHT22;2336;47.822;7.564;2024-02-21T13:19:31;12.70;99.90
4647;DHT22;2336;47.822;7.564;2024-02-21T13:21:58;12.70;99.90
4647;DHT22;2336;47.822;7.564;2024-02-21T13:24:25;12.70;99.90
4647;DHT22;2336;47.822;7.564;2024-02-21T13:26:51;12.80;99.90
4647;DHT22;2336;47.822;7.564;2024-02-21T13:29:18;12.80;99.90
4647;DHT22;2336;47.822;7.564;2024-02-21T13:31:47;12.90;99.90
4647;DHT22;2336;47.822;7.564;2024-02-21T13:34:15;12.90;99.90
4647;DHT22;2336;47.822;7.564;2024-02-21T13:36:42;12.70;99.90
4647;DHT22;2336;47.822;7.564;2024-02-21T13:39:09;12.90;99.90
4647;DHT22;2336;47.822;7.564;2024-02-21T13:41:38;12.90;99.90
4647;DHT22;2336;47.822;7.564;2024-02-21T13:44:05;12.80;99.90
4647;DHT22;2336;47.822;7.564;2024-02-21T13:46:32;12.70;99.90
4647;DHT22;2336;47.822;7.564;2024-02-21T13:49:04;12.60;99.90
4647;DHT22;2336;47.822;7.564;2024-02-21T13:51:32;12.60;99.90
4647;DHT22;2336;47.822;7.564;2024-02-21T13:54:01;12.60;99.90
4647;DHT22;2336;47.822;7.564;2024-02-21T13:56:28;12.70;99.90
4647;DHT22;2336;47.822;7.564;2024-02-21T13:58:55;12.70;99.90
4647;DHT22;2336;47.822;7.564;2024-02-21T14:01:21;12.70;99.90
4647;DHT22;2336;47.822;7.564;2024-02-21T14:03:48;12.70;99.90
4647;DHT22;2336;47.822;7.564;2024-02-21T14:06:16;12.80;99.90
4647;DHT22;2336;47.822;7.564;2024-02-21T14:08:43;12.80;99.90
4647;DHT22;2336;47.822;7.564;2024-02-21T14:11:10;12.70;99.90
4647;DHT22;2336;47.822;7.564;2024-02-21T14:13:37;12.70;99.90
4647;DHT22;2336;47.822;7.564;2024-02-21T14:16:09;12.60;99.90
4647;DHT22;2336;47.822;7.564;2024-02-21T14:18:37;12.70;99.90
4647;DHT22;2336;47.822;7.564;2024-02-21T14:21:06;12.70;99.90
4647;DHT22;2336;47.822;7.564;2024-02-21T14:23:34;12.70;99.90
4647;DHT22;2336;47.822;7.564;2024-02-21T14:26:01;12.70;99.90
4647;DHT22;2336;47.822;7.564;2024-02-21T14:28:28;12.70;99.90
4647;DHT22;2336;47.822;7.564;2024-02-21T14:30:55;12.70;99.90
4647;DHT22;2336;47.822;7.564;2024-02-21T14:33:23;12.60;99.90
4647;DHT22;2336;47.822;7.564;2024-02-21T14:35:50;12.60;99.90
4647;DHT22;2336;47.822;7.564;2024-02-21T14:38:18;12.60;99.90
4647;DHT22;2336;47.822;7.564;2024-02-21T14:40:46;12.50;99.90
4647;DHT22;2336;47.822;7.564;2024-02-21T14:43:12;12.40;99.90
4647;DHT22;2336;47.822;7.564;2024-02-21T14:45:40;12.50;99.90
4647;DHT22;2336;47.822;7.564;2024-02-21T14:48:08;12.60;99.90
4647;DHT22;2336;47.822;7.564;2024-02-21T14:50:35;12.60;99.90
4647;DHT22;2336;47.822;7.564;2024-02-21T14:53:01;12.50;99.90
4647;DHT22;2336;47.822;7.564;2024-02-21T14:55:28;12.50;99.90
4647;DHT22;2336;47.822;7.564;2024-02-21T14:57:57;12.50;99.90
4647;DHT22;2336;47.822;7.564;2024-02-21T15:00:23;12.50;99.90
4647;DHT22;2336;47.822;7.564;2024-02-21T15:02:55;12.50;99.90
4647;DHT22;2336;47.822;7.564;2024-02-21T15:05:22;12.50;99.90
4647;DHT22;2336;47.822;7.564;2024-02-21T15:07:49;12.50;99.90
4647;DHT22;2336;47.822;7.564;2024-02-21T15:10:16;12.40;99.90
4647;DHT22;2336;47.822;7.564;2024-02-21T15:12:44;12.40;99.90
4647;DHT22;2336;47.822;7.564;2024-02-21T15:15:12;12.40;99.90
4647;DHT22;2336;47.822;7.564;2024-02-21T15:17:39;12.30;99.90
4647;DHT22;2336;47.822;7.564;2024-02-21T15:20:07;12.30;99.90
4647;DHT22;2336;47.822;7.564;2024-02-21T15:22:34;12.30;99.90
4647;DHT22;2336;47.822;7.564;2024-02-21T15:25:02;12.20;99.90
4647;DHT22;2336;47.822;7.564;2024-02-21T15:27:30;12.20;99.90
4647;DHT22;2336;47.822;7.564;2024-02-21T15:29:57;12.20;99.90
4647;DHT22;2336;47.822;7.564;2024-02-21T15:32:26;12.20;99.90
4647;DHT22;2336;47.822;7.564;2024-02-21T15:34:53;12.30;99.90
4647;DHT22;2336;47.822;7.564;2024-02-21T15:37:20;12.20;99.90
4647;DHT22;2336;47.822;7.564;2024-02-21T15:39:47;12.10;99.90
4647;DHT22;2336;47.822;7.564;2024-02-21T15:42:14;12.10;99.90
4647;DHT22;2336;47.822;7.564;2024-02-21T15:44:41;12.10;99.90
4647;DHT22;2336;47.822;7.564;2024-02-21T15:47:09;12.10;99.90
4647;DHT22;2336;47.822;7.564;2024-02-21T15:49:43;12.20;99.90
4647;DHT22;2336;47.822;7.564;2024-02-21T15:52:14;12.10;99.90
4647;DHT22;2336;47.822;7.564;2024-02-21T15:54:41;12.10;99.90
4647;DHT22;2336;47.822;7.564;2024-02-21T15:57:08;12.00;99.90
4647;DHT22;2336;47.822;7.564;2024-02-21T15:59:35;12.00;99.90
4647;DHT22;2336;47.822;7.564;2024-02-21T16:02:02;12.00;99.90
4647;DHT22;2336;47.822;7.564;2024-02-21T16:04:29;11.90;99.90
4647;DHT22;2336;47.822;7.564;2024-02-21T16:06:59;12.00;99.90
4647;DHT22;2336;47.822;7.564;2024-02-21T16:09:25;12.00;99.90
4647;DHT22;2336;47.822;7.564;2024-02-21T16:11:54;12.00;99.90
4647;DHT22;2336;47.822;7.564;2024-02-21T16:14:21;11.90;99.90
4647;DHT22;2336;47.822;7.564;2024-02-21T16:16:48;11.90;99.90